createdAt,value
2022-08-24T00:00:31.080Z,65.70
2022-08-24T00:02:59.088Z,65.70
2022-08-24T00:05:27.134Z,65.80
2022-08-24T00:07:55.217Z,66.00
2022-08-24T00:10:23.769Z,66.10
2022-08-24T00:12:53.144Z,66.40
2022-08-24T00:15:21.067Z,66.40
2022-08-24T00:17:49.020Z,66.40
2022-08-24T00:20:17.688Z,66.20
2022-08-24T00:22:45.799Z,66.20
2022-08-24T00:25:13.867Z,66.20
2022-08-24T00:27:42.531Z,66.20
2022-08-24T00:30:15.413Z,66.00
2022-08-24T00:32:43.448Z,66.30
2022-08-24T00:35:11.986Z,66.30
2022-08-24T00:37:40.737Z,66.10
2022-08-24T00:40:12.487Z,66.10
2022-08-24T00:42:41.517Z,65.80
2022-08-24T00:45:10.543Z,65.80
2022-08-24T00:47:41.696Z,65.80
2022-08-24T00:50:19.243Z,65.90
2022-08-24T00:52:50.396Z,65.70
2022-08-24T00:55:21.431Z,65.70
2022-08-24T00:57:50.768Z,65.40
2022-08-24T01:00:22.545Z,65.50
2022-08-24T01:02:54.047Z,65.80
2022-08-24T01:05:22.035Z,65.90
2022-08-24T01:07:50.694Z,66.20
2022-08-24T01:10:20.680Z,66.50
2022-08-24T01:13:00.380Z,66.40
2022-08-24T01:15:29.432Z,66.60
2022-08-24T01:18:16.337Z,66.50
2022-08-24T01:20:44.494Z,66.30
2022-08-24T01:23:14.951Z,66.30
2022-08-24T01:25:45.424Z,66.20
2022-08-24T01:28:15.813Z,66.10
2022-08-24T01:30:44.665Z,66.10
2022-08-24T01:33:22.700Z,66.10
2022-08-24T01:35:50.854Z,66.50
2022-08-24T01:38:18.754Z,66.70
2022-08-24T01:40:50.939Z,66.80
2022-08-24T01:43:18.879Z,66.90
2022-08-24T01:45:46.844Z,67.10
2022-08-24T01:48:15.388Z,67.20
2022-08-24T01:50:52.626Z,67.20
2022-08-24T01:53:22.599Z,67.10
2022-08-24T01:55:52.684Z,67.40
2022-08-24T01:58:20.608Z,67.40
2022-08-24T02:00:48.839Z,67.60
2022-08-24T02:03:17.101Z,67.70
2022-08-24T02:05:52.106Z,67.80
2022-08-24T02:08:21.180Z,67.80
2022-08-24T02:10:54.990Z,67.80
2022-08-24T02:13:28.698Z,67.90
2022-08-24T02:15:56.732Z,68.00
2022-08-24T02:18:24.773Z,68.10
2022-08-24T02:20:53.234Z,68.10
2022-08-24T02:23:22.357Z,68.20
2022-08-24T02:25:50.835Z,68.30
2022-08-24T02:28:20.178Z,68.30
2022-08-24T02:30:50.556Z,68.50
2022-08-24T02:33:18.937Z,68.50
2022-08-24T02:35:47.868Z,68.50
2022-08-24T02:38:15.789Z,68.50
2022-08-24T02:40:44.050Z,68.50
2022-08-24T02:43:12.060Z,68.50
2022-08-24T02:45:40.577Z,68.50
2022-08-24T02:48:10.504Z,68.60
2022-08-24T02:50:39.728Z,68.60
2022-08-24T02:53:07.898Z,68.60
2022-08-24T02:55:35.828Z,68.80
2022-08-24T02:58:03.743Z,68.90
2022-08-24T03:00:31.785Z,68.90
2022-08-24T03:03:01.238Z,69.00
2022-08-24T03:05:31.022Z,69.10
2022-08-24T03:07:58.952Z,69.10
2022-08-24T03:10:28.702Z,69.10
2022-08-24T03:13:00.924Z,69.20
2022-08-24T03:15:29.898Z,69.30
2022-08-24T03:17:58.120Z,69.40
2022-08-24T03:20:27.243Z,69.40
2022-08-24T03:22:56.704Z,69.50
2022-08-24T03:25:26.543Z,69.50
2022-08-24T03:27:54.569Z,69.60
2022-08-24T03:30:23.843Z,69.60
2022-08-24T03:32:51.881Z,69.60
2022-08-24T03:35:21.839Z,69.70
2022-08-24T03:37:50.509Z,69.80
2022-08-24T03:40:24.511Z,69.80
2022-08-24T03:42:56.351Z,69.90
2022-08-24T03:45:24.592Z,70.00
2022-08-24T03:47:53.221Z,70.00
2022-08-24T03:50:21.988Z,70.00
2022-08-24T03:52:50.243Z,70.00
2022-08-24T03:55:20.178Z,69.90
2022-08-24T03:57:48.463Z,69.90
2022-08-24T04:00:17.083Z,69.90
2022-08-24T04:02:53.790Z,69.80
2022-08-24T04:05:24.735Z,69.80
2022-08-24T04:08:28.886Z,70.00
2022-08-24T04:10:58.494Z,70.00
2022-08-24T04:13:26.408Z,70.10
2022-08-24T04:15:55.409Z,70.00
2022-08-24T04:18:26.895Z,70.10
2022-08-24T04:21:15.345Z,70.00
2022-08-24T04:23:47.197Z,70.00
2022-08-24T04:26:32.395Z,69.80
2022-08-24T04:29:08.269Z,69.80
2022-08-24T04:31:39.913Z,69.60
2022-08-24T04:34:08.638Z,69.90
2022-08-24T04:36:38.498Z,70.10
2022-08-24T04:39:06.455Z,70.10
2022-08-24T04:42:03.135Z,70.00
2022-08-24T04:44:35.451Z,69.90
2022-08-24T04:47:03.421Z,70.10
2022-08-24T04:49:31.550Z,69.90
2022-08-24T04:51:59.720Z,69.60
2022-08-24T04:54:27.686Z,69.50
2022-08-24T04:57:23.265Z,69.40
2022-08-24T04:59:51.195Z,68.80
2022-08-24T05:02:20.928Z,68.40
2022-08-24T05:04:50.657Z,67.70
2022-08-24T05:07:19.713Z,67.30
2022-08-24T05:09:47.644Z,66.30
2022-08-24T05:12:15.847Z,65.70
2022-08-24T05:14:54.729Z,64.50
2022-08-24T05:17:23.500Z,63.20
2022-08-24T05:19:51.477Z,62.60
2022-08-24T05:22:19.401Z,62.10
2022-08-24T05:24:51.489Z,60.90
2022-08-24T05:27:19.841Z,60.40
2022-08-24T05:29:55.250Z,59.80
2022-08-24T05:32:24.134Z,59.20
2022-08-24T05:34:54.039Z,58.80
2022-08-24T05:37:22.105Z,59.40
2022-08-24T05:40:08.040Z,60.80
2022-08-24T05:42:39.548Z,62.10
2022-08-24T05:45:10.627Z,61.80
2022-08-24T05:47:38.838Z,61.20
2022-08-24T05:50:18.838Z,60.30
2022-08-24T05:52:46.993Z,60.20
2022-08-24T05:55:14.996Z,60.50
2022-08-24T05:57:43.351Z,60.70
2022-08-24T06:00:20.452Z,60.50
2022-08-24T06:02:52.910Z,59.60
2022-08-24T06:05:22.538Z,59.30
2022-08-24T06:07:50.930Z,59.40
2022-08-24T06:10:36.292Z,59.20
2022-08-24T06:13:06.373Z,58.50
2022-08-24T06:15:36.057Z,57.30
2022-08-24T06:18:04.524Z,56.70
2022-08-24T06:20:32.705Z,56.20
2022-08-24T06:23:00.659Z,55.50
2022-08-24T06:25:56.973Z,54.80
2022-08-24T06:28:25.407Z,54.70
2022-08-24T06:31:03.264Z,55.00
2022-08-24T06:33:31.759Z,55.00
2022-08-24T06:36:00.867Z,55.10
2022-08-24T06:38:30.629Z,54.60
2022-08-24T06:41:00.482Z,53.80
2022-08-24T06:43:29.282Z,52.40
2022-08-24T06:46:04.927Z,51.10
2022-08-24T06:48:40.118Z,49.40
2022-08-24T06:51:10.266Z,48.40
2022-08-24T06:53:39.712Z,47.20
2022-08-24T06:56:09.426Z,47.40
2022-08-24T06:58:37.532Z,47.80
2022-08-24T07:01:10.881Z,48.20
2022-08-24T07:03:39.406Z,48.50
2022-08-24T07:06:20.760Z,48.80
2022-08-24T07:08:48.918Z,49.40
2022-08-24T07:11:18.672Z,49.10
2022-08-24T07:13:47.603Z,48.50
2022-08-24T07:16:18.001Z,47.70
2022-08-24T07:18:50.167Z,47.10
2022-08-24T07:21:21.157Z,46.70
2022-08-24T07:23:51.602Z,45.70
2022-08-24T07:26:22.682Z,45.10
2022-08-24T07:28:54.041Z,45.10
2022-08-24T07:31:24.648Z,44.00
2022-08-24T07:34:00.784Z,44.00
2022-08-24T07:36:28.851Z,44.10
2022-08-24T07:38:58.204Z,44.40
2022-08-24T07:44:18.255Z,44.00
2022-08-24T07:46:48.313Z,43.70
2022-08-24T07:49:33.080Z,43.20
2022-08-24T07:52:02.911Z,42.90
2022-08-24T07:54:30.807Z,41.80
2022-08-24T07:57:00.370Z,41.10
2022-08-24T07:59:28.552Z,40.00
2022-08-24T08:01:58.944Z,40.30
2022-08-24T08:04:27.760Z,40.30
2022-08-24T08:06:57.826Z,40.00
2022-08-24T08:09:26.698Z,40.60
2022-08-24T08:11:54.963Z,40.40
2022-08-24T08:14:22.981Z,41.10
2022-08-24T08:16:51.702Z,41.40
2022-08-24T08:19:20.964Z,40.10
2022-08-24T08:22:07.808Z,40.50
2022-08-24T08:24:46.543Z,38.90
2022-08-24T08:27:16.910Z,38.30
2022-08-24T08:29:45.078Z,37.60
2022-08-24T08:32:16.942Z,37.20
2022-08-24T08:34:47.765Z,36.80
2022-08-24T08:37:16.082Z,36.80
2022-08-24T08:39:44.401Z,37.00
2022-08-24T08:42:27.707Z,36.70
2022-08-24T08:45:26.618Z,36.80
2022-08-24T08:48:27.147Z,38.00
2022-08-24T08:51:08.804Z,37.80
2022-08-24T08:54:02.933Z,38.30
2022-08-24T08:56:36.277Z,37.90
2022-08-24T08:59:08.652Z,36.10
2022-08-24T09:01:50.517Z,35.60
2022-08-24T09:04:56.997Z,34.90
2022-08-24T09:07:37.394Z,34.70
2022-08-24T09:10:15.289Z,32.60
2022-08-24T09:12:52.086Z,32.70
2022-08-24T09:15:38.217Z,31.50
2022-08-24T09:18:14.430Z,31.20
2022-08-24T09:20:57.068Z,30.10
2022-08-24T09:23:37.678Z,30.50
2022-08-24T09:26:09.981Z,30.20
2022-08-24T09:28:43.641Z,28.90
2022-08-24T09:31:22.701Z,29.30
2022-08-24T09:33:54.798Z,29.80
2022-08-24T09:36:28.755Z,29.60
2022-08-24T09:39:06.652Z,29.30
2022-08-24T09:41:55.317Z,29.30
2022-08-24T09:44:50.632Z,28.20
2022-08-24T09:47:42.618Z,28.10
2022-08-24T09:50:27.011Z,28.50
2022-08-24T09:53:04.540Z,29.30
2022-08-24T09:55:45.895Z,29.70
2022-08-24T09:58:18.289Z,29.40
2022-08-24T10:00:47.492Z,29.30
2022-08-24T10:03:36.222Z,28.80
2022-08-24T10:06:26.837Z,28.90
2022-08-24T10:09:08.998Z,28.20
2022-08-24T10:11:42.322Z,27.20
2022-08-24T10:14:14.409Z,27.60
2022-08-24T10:16:47.141Z,27.60
2022-08-24T10:19:26.331Z,28.40
2022-08-24T10:21:59.236Z,29.30
2022-08-24T10:24:41.301Z,28.90
2022-08-24T10:27:21.454Z,29.20
2022-08-24T10:30:09.385Z,29.80
2022-08-24T10:32:51.427Z,29.50
2022-08-24T10:35:23.144Z,29.70
2022-08-24T10:38:29.459Z,29.50
2022-08-24T10:41:05.724Z,29.30
2022-08-24T10:43:50.591Z,30.20
2022-08-24T10:46:33.312Z,29.60
2022-08-24T10:49:15.519Z,29.50
2022-08-24T10:51:50.337Z,28.80
2022-08-24T10:54:19.525Z,27.80
2022-08-24T10:56:55.971Z,26.90
2022-08-24T10:59:26.980Z,27.30
2022-08-24T11:02:02.011Z,27.90
2022-08-24T11:04:39.467Z,27.30
2022-08-24T11:07:10.260Z,27.50
2022-08-24T11:09:45.649Z,27.30
2022-08-24T11:12:24.827Z,27.90
2022-08-24T11:14:55.343Z,28.50
2022-08-24T11:17:24.125Z,28.50
2022-08-24T11:19:52.052Z,28.60
2022-08-24T11:22:40.892Z,28.80
2022-08-24T11:25:11.885Z,28.40
2022-08-24T11:27:42.098Z,27.90
2022-08-24T11:30:16.406Z,27.30
2022-08-24T11:32:45.489Z,27.10
2022-08-24T11:35:18.399Z,27.90
2022-08-24T11:37:47.065Z,28.20
2022-08-24T11:40:15.595Z,28.10
2022-08-24T11:42:49.481Z,27.30
2022-08-24T11:45:22.440Z,27.10
2022-08-24T11:47:57.380Z,26.80
2022-08-24T11:50:30.514Z,26.40
2022-08-24T11:53:12.310Z,25.80
2022-08-24T11:55:47.449Z,26.20
2022-08-24T11:58:24.608Z,26.00
2022-08-24T12:00:56.820Z,25.40
2022-08-24T12:03:31.467Z,25.30
2022-08-24T12:06:01.923Z,25.20
2022-08-24T12:08:35.496Z,25.10
2022-08-24T12:11:07.141Z,24.30
2022-08-24T12:13:39.162Z,23.90
2022-08-24T12:16:13.004Z,24.90
2022-08-24T12:18:49.137Z,26.00
2022-08-24T12:21:18.477Z,27.40
2022-08-24T12:23:48.767Z,27.80
2022-08-24T12:26:20.754Z,28.40
2022-08-24T12:28:54.254Z,28.70
2022-08-24T12:31:28.930Z,28.80
2022-08-24T12:33:58.300Z,28.50
2022-08-24T12:36:28.659Z,28.00
2022-08-24T12:39:01.610Z,28.60
2022-08-24T12:41:32.655Z,29.60
2022-08-24T12:44:03.483Z,29.20
2022-08-24T12:46:32.911Z,29.70
2022-08-24T12:49:02.126Z,29.70
2022-08-24T12:51:33.541Z,29.20
2022-08-24T12:54:15.831Z,28.10
2022-08-24T12:56:50.679Z,27.40
2022-08-24T12:59:22.781Z,27.70
2022-08-24T13:02:00.505Z,27.30
2022-08-24T13:04:34.212Z,27.60
2022-08-24T13:07:05.819Z,28.00
2022-08-24T13:09:35.289Z,27.50
2022-08-24T13:12:18.081Z,27.40
2022-08-24T13:14:53.331Z,26.80
2022-08-24T13:17:41.059Z,25.90
2022-08-24T13:20:19.979Z,25.20
2022-08-24T13:22:49.776Z,24.70
2022-08-24T13:25:38.728Z,24.80
2022-08-24T13:28:08.887Z,24.50
2022-08-24T13:30:52.116Z,24.20
2022-08-24T13:33:30.263Z,25.20
2022-08-24T13:36:00.154Z,25.50
2022-08-24T13:38:42.830Z,26.30
2022-08-24T13:41:15.031Z,27.40
2022-08-24T13:43:46.409Z,28.30
2022-08-24T13:46:17.574Z,28.20
2022-08-24T13:48:53.853Z,27.50
2022-08-24T13:51:29.999Z,27.30
2022-08-24T13:54:03.732Z,27.70
2022-08-24T13:56:38.263Z,27.20
2022-08-24T13:59:14.347Z,27.10
2022-08-24T14:01:56.707Z,27.40
2022-08-24T14:04:38.354Z,28.20
2022-08-24T14:07:10.965Z,28.10
2022-08-24T14:09:44.503Z,28.50
2022-08-24T14:12:18.078Z,28.50
2022-08-24T14:14:55.020Z,28.50
2022-08-24T14:17:43.971Z,28.40
2022-08-24T14:20:22.296Z,27.20
2022-08-24T14:22:56.468Z,26.40
2022-08-24T14:25:25.527Z,26.30
2022-08-24T14:28:16.164Z,26.80
2022-08-24T14:30:50.267Z,26.90
2022-08-24T14:33:28.243Z,28.10
2022-08-24T14:36:14.255Z,28.30
2022-08-24T14:38:55.664Z,28.50
2022-08-24T14:41:31.648Z,29.20
2022-08-24T14:44:08.972Z,28.40
2022-08-24T14:46:40.424Z,27.50
2022-08-24T14:49:13.833Z,27.90
2022-08-24T14:51:54.233Z,28.00
2022-08-24T14:54:26.389Z,28.70
2022-08-24T14:57:03.668Z,29.50
2022-08-24T14:59:42.023Z,29.80
2022-08-24T15:02:39.648Z,29.90
2022-08-24T15:05:14.505Z,28.80
2022-08-24T15:07:53.133Z,29.00
2022-08-24T15:10:24.817Z,29.40
2022-08-24T15:12:56.517Z,29.80
2022-08-24T15:15:31.620Z,29.40
2022-08-24T15:18:06.822Z,29.30
2022-08-24T15:20:48.308Z,29.20
2022-08-24T15:23:20.584Z,29.60
2022-08-24T15:25:51.138Z,30.20
2022-08-24T15:28:23.971Z,30.40
2022-08-24T15:30:56.250Z,30.20
2022-08-24T15:33:25.937Z,30.10
2022-08-24T15:36:05.134Z,30.40
2022-08-24T15:38:34.297Z,29.90
2022-08-24T15:41:05.999Z,29.40
2022-08-24T15:43:34.545Z,29.30
2022-08-24T15:46:02.744Z,29.50
2022-08-24T15:48:32.855Z,30.30
2022-08-24T15:51:01.460Z,30.20
2022-08-24T15:53:31.816Z,29.90
2022-08-24T15:56:01.177Z,30.10
2022-08-24T15:58:33.433Z,29.90
2022-08-24T16:01:20.283Z,29.60
2022-08-24T16:03:51.441Z,30.00
2022-08-24T16:06:24.122Z,31.10
2022-08-24T16:08:57.477Z,31.70
2022-08-24T16:11:28.859Z,32.50
2022-08-24T16:13:56.864Z,32.50
2022-08-24T16:16:32.820Z,32.70
2022-08-24T16:19:08.339Z,32.20
2022-08-24T16:21:38.755Z,32.60
2022-08-24T16:24:08.947Z,33.00
2022-08-24T16:26:52.166Z,33.80
2022-08-24T16:29:38.834Z,34.30
2022-08-24T16:32:11.020Z,34.70
2022-08-24T16:34:51.594Z,34.50
2022-08-24T16:37:21.144Z,35.50
2022-08-24T16:39:49.466Z,35.30
2022-08-24T16:42:21.526Z,35.60
2022-08-24T16:44:49.748Z,35.90
2022-08-24T16:47:17.627Z,35.80
2022-08-24T16:49:45.688Z,35.80
2022-08-24T16:52:15.082Z,36.00
2022-08-24T16:54:43.364Z,36.80
2022-08-24T16:57:13.589Z,36.40
2022-08-24T16:59:42.800Z,36.70
2022-08-24T17:02:11.542Z,36.40
2022-08-24T17:04:39.552Z,37.00
2022-08-24T17:07:08.879Z,37.10
2022-08-24T17:09:39.184Z,37.30
2022-08-24T17:12:07.462Z,37.40
2022-08-24T17:14:37.513Z,37.80
2022-08-24T17:17:05.937Z,37.70
2022-08-24T17:19:34.009Z,38.20
2022-08-24T17:22:01.987Z,38.70
2022-08-24T17:24:29.863Z,38.60
2022-08-24T17:26:59.644Z,39.20
2022-08-24T17:29:27.982Z,39.20
2022-08-24T17:31:56.100Z,39.80
2022-08-24T17:34:24.800Z,40.60
2022-08-24T17:36:54.704Z,40.30
2022-08-24T17:39:24.334Z,40.50
2022-08-24T17:41:52.271Z,40.40
2022-08-24T17:44:24.853Z,40.40
2022-08-24T17:46:54.190Z,40.70
2022-08-24T17:49:22.937Z,40.60
2022-08-24T17:51:52.117Z,40.40
2022-08-24T17:54:20.346Z,40.30
2022-08-24T17:56:50.762Z,40.70
2022-08-24T17:59:25.637Z,40.70
2022-08-24T18:01:57.458Z,41.10
2022-08-24T18:04:27.547Z,41.30
2022-08-24T18:06:56.350Z,41.50
2022-08-24T18:09:27.792Z,41.70
2022-08-24T18:11:55.686Z,41.80
2022-08-24T18:14:23.643Z,42.20
2022-08-24T18:16:53.927Z,42.50
2022-08-24T18:19:26.114Z,42.80
2022-08-24T18:21:54.104Z,43.20
2022-08-24T18:24:22.182Z,43.10
2022-08-24T18:26:50.751Z,43.30
2022-08-24T18:29:20.765Z,43.60
2022-08-24T18:31:49.117Z,43.60
2022-08-24T18:34:18.745Z,43.90
2022-08-24T18:36:48.083Z,44.10
2022-08-24T18:39:16.048Z,44.30
2022-08-24T18:41:49.296Z,44.40
2022-08-24T18:44:19.126Z,44.80
2022-08-24T18:46:47.897Z,45.20
2022-08-24T18:49:15.973Z,45.60
2022-08-24T18:51:44.218Z,46.00
2022-08-24T18:54:16.333Z,46.20
2022-08-24T18:56:44.969Z,46.60
2022-08-24T18:59:14.537Z,46.70
2022-08-24T19:01:56.912Z,46.90
2022-08-24T19:04:29.425Z,47.20
2022-08-24T19:07:00.991Z,47.40
2022-08-24T19:09:34.317Z,47.60
2022-08-24T19:12:02.903Z,47.80
2022-08-24T19:14:30.931Z,47.90
2022-08-24T19:16:58.923Z,48.00
2022-08-24T19:19:26.885Z,48.40
2022-08-24T19:21:55.047Z,49.00
2022-08-24T19:24:25.287Z,49.30
2022-08-24T19:26:55.103Z,49.60
2022-08-24T19:29:45.037Z,50.20
2022-08-24T19:32:22.037Z,50.20
2022-08-24T19:34:50.740Z,50.60
2022-08-24T19:37:18.911Z,51.00
2022-08-24T19:39:47.838Z,51.40
2022-08-24T19:42:17.957Z,51.90
2022-08-24T19:45:04.493Z,52.30
2022-08-24T19:47:34.584Z,52.60
2022-08-24T19:50:03.290Z,53.20
2022-08-24T19:52:33.326Z,53.50
2022-08-24T19:55:01.671Z,53.80
2022-08-24T19:57:35.920Z,53.80
2022-08-24T20:00:12.845Z,54.30
2022-08-24T20:02:41.067Z,54.60
2022-08-24T20:05:09.131Z,54.90
2022-08-24T20:07:37.499Z,55.00
2022-08-24T20:10:12.975Z,55.20
2022-08-24T20:12:42.653Z,55.90
2022-08-24T20:15:11.275Z,56.00
2022-08-24T20:17:39.170Z,56.20
2022-08-24T20:20:08.561Z,56.60
2022-08-24T20:22:36.264Z,57.10
2022-08-24T20:25:04.076Z,57.50
2022-08-24T20:27:31.917Z,58.00
2022-08-24T20:30:01.395Z,58.40
2022-08-24T20:32:29.470Z,58.70
2022-08-24T20:34:57.873Z,59.40
2022-08-24T20:37:26.742Z,59.90
2022-08-24T20:39:55.361Z,60.20
2022-08-24T20:42:24.009Z,60.60
2022-08-24T20:44:51.978Z,61.30
2022-08-24T20:47:21.534Z,61.60
2022-08-24T20:49:49.924Z,61.50
2022-08-24T20:52:18.143Z,61.40
2022-08-24T20:54:46.023Z,62.00
2022-08-24T20:57:15.419Z,62.70
2022-08-24T20:59:43.446Z,63.00
2022-08-24T21:02:11.394Z,63.30
2022-08-24T21:04:40.776Z,62.90
2022-08-24T21:07:10.496Z,62.90
2022-08-24T21:09:38.387Z,63.40
2022-08-24T21:12:06.769Z,63.40
2022-08-24T21:14:34.582Z,63.60
2022-08-24T21:17:04.228Z,64.00
2022-08-24T21:19:31.910Z,64.10
2022-08-24T21:22:01.137Z,64.20
2022-08-24T21:24:29.118Z,64.20
2022-08-24T21:26:57.024Z,64.20
2022-08-24T21:29:25.001Z,64.20
2022-08-24T21:32:10.311Z,64.30
2022-08-24T21:34:44.042Z,64.70
2022-08-24T21:37:15.070Z,64.50
2022-08-24T21:39:43.417Z,64.40
2022-08-24T21:42:12.846Z,64.30
2022-08-24T21:44:44.919Z,64.20
2022-08-24T21:47:12.856Z,64.20
2022-08-24T21:49:41.270Z,64.30
2022-08-24T21:52:09.307Z,64.40
2022-08-24T21:54:38.687Z,64.40
2022-08-24T21:57:07.018Z,64.20
2022-08-24T21:59:35.428Z,63.90
2022-08-24T22:02:04.056Z,63.90
2022-08-24T22:04:32.084Z,64.00
2022-08-24T22:07:01.590Z,64.10
2022-08-24T22:09:29.711Z,64.10
2022-08-24T22:11:59.964Z,64.10
2022-08-24T22:14:28.214Z,64.00
2022-08-24T22:16:56.105Z,64.10
2022-08-24T22:19:24.062Z,64.30
2022-08-24T22:21:51.982Z,64.40
2022-08-24T22:24:19.898Z,64.40
2022-08-24T22:26:48.039Z,64.30
2022-08-24T22:29:17.322Z,64.40
2022-08-24T22:31:45.511Z,64.10
2022-08-24T22:34:19.573Z,64.00
2022-08-24T22:36:49.317Z,63.90
2022-08-24T22:39:17.609Z,63.90
2022-08-24T22:41:45.842Z,63.70
2022-08-24T22:44:22.766Z,63.90
2022-08-24T22:46:53.063Z,64.00
2022-08-24T22:49:22.060Z,63.80
2022-08-24T22:51:50.139Z,63.90
2022-08-24T22:54:18.238Z,64.20
2022-08-24T22:56:47.038Z,63.90
2022-08-24T22:59:16.582Z,64.20
2022-08-24T23:01:45.806Z,64.20
2022-08-24T23:04:15.998Z,64.10
2022-08-24T23:06:44.086Z,64.30
2022-08-24T23:09:12.425Z,64.20
2022-08-24T23:11:40.797Z,64.30
2022-08-24T23:14:09.042Z,64.50
2022-08-24T23:16:37.807Z,64.50
2022-08-24T23:19:23.371Z,64.60
2022-08-24T23:21:53.758Z,64.60
2022-08-24T23:24:21.959Z,64.60
2022-08-24T23:26:49.841Z,64.70
2022-08-24T23:29:17.840Z,64.80
2022-08-24T23:31:46.830Z,64.90
2022-08-24T23:34:15.068Z,64.90
2022-08-24T23:36:43.910Z,64.90
2022-08-24T23:39:13.768Z,64.80
2022-08-24T23:41:42.511Z,64.90
2022-08-24T23:44:11.706Z,64.80
2022-08-24T23:46:40.098Z,64.80
2022-08-24T23:49:08.320Z,64.90
2022-08-24T23:51:36.744Z,64.90
2022-08-24T23:54:06.416Z,65.10
2022-08-24T23:56:36.982Z,65.20
2022-08-24T23:59:07.461Z,65.30
